createdAt,value
2019-05-23T00:01:09.775Z,14.40
2019-05-23T00:03:58.924Z,13.30
2019-05-23T00:06:28.559Z,12.73
2019-05-23T00:08:58.383Z,14.90
2019-05-23T00:11:55.455Z,15.23
2019-05-23T00:14:43.324Z,13.30
2019-05-23T00:17:18.828Z,12.07
2019-05-23T00:19:50.112Z,12.43
2019-05-23T00:22:20.360Z,12.10
2019-05-23T00:24:50.361Z,12.13
2019-05-23T00:27:20.563Z,12.27
2019-05-23T00:29:51.532Z,13.37
2019-05-23T00:32:46.200Z,12.73
2019-05-23T00:35:17.476Z,11.07
2019-05-23T00:37:47.355Z,13.67
2019-05-23T00:40:17.975Z,12.33
2019-05-23T00:42:47.569Z,14.67
2019-05-23T00:45:18.482Z,13.30
2019-05-23T00:47:49.387Z,11.93
2019-05-23T00:50:21.390Z,15.33
2019-05-23T00:52:51.959Z,13.03
2019-05-23T00:55:22.192Z,12.33
2019-05-23T00:57:51.820Z,15.97
2019-05-23T01:00:22.830Z,13.97
2019-05-23T01:02:54.180Z,16.57
2019-05-23T01:05:24.241Z,13.03
2019-05-23T01:07:53.993Z,13.63
2019-05-23T01:10:23.636Z,17.83
2019-05-23T01:12:53.071Z,12.30
2019-05-23T01:15:24.397Z,13.63
2019-05-23T01:17:55.211Z,10.73
2019-05-23T01:20:45.072Z,12.40
2019-05-23T01:23:15.108Z,12.97
2019-05-23T01:25:44.852Z,14.67
2019-05-23T01:28:14.597Z,14.03
2019-05-23T01:30:46.554Z,13.07
2019-05-23T01:33:17.664Z,12.67
2019-05-23T01:35:46.981Z,12.23
2019-05-23T01:38:16.587Z,11.47
2019-05-23T01:40:46.117Z,15.17
2019-05-23T01:43:16.081Z,11.73
2019-05-23T01:45:46.565Z,11.17
2019-05-23T01:48:17.288Z,11.83
2019-05-23T01:50:46.604Z,12.90
2019-05-23T01:53:15.967Z,12.60
2019-05-23T01:55:46.828Z,13.23
2019-05-23T01:58:16.522Z,13.00
2019-05-23T02:00:47.253Z,15.80
2019-05-23T02:03:16.660Z,12.43
2019-05-23T02:05:46.690Z,14.93
2019-05-23T02:08:16.600Z,11.93
2019-05-23T02:10:46.977Z,12.47
2019-05-23T02:13:16.198Z,14.47
2019-05-23T02:15:45.624Z,13.03
2019-05-23T02:18:16.136Z,11.70
2019-05-23T02:20:46.236Z,12.83
2019-05-23T02:23:18.032Z,12.03
2019-05-23T02:25:48.665Z,14.67
2019-05-23T02:28:19.004Z,15.13
2019-05-23T02:30:48.396Z,13.07
2019-05-23T02:33:17.686Z,12.63
2019-05-23T02:35:46.922Z,14.53
2019-05-23T02:38:33.865Z,11.67
2019-05-23T02:41:22.072Z,12.37
2019-05-23T02:43:56.526Z,13.07
2019-05-23T02:46:51.147Z,12.33
2019-05-23T02:49:23.010Z,15.73
2019-05-23T02:51:53.702Z,12.30
2019-05-23T02:54:27.047Z,15.57
2019-05-23T02:56:59.269Z,13.97
2019-05-23T02:59:48.296Z,16.03
2019-05-23T03:02:47.863Z,16.17
2019-05-23T03:05:18.917Z,15.27
2019-05-23T03:07:48.163Z,15.53
2019-05-23T03:10:20.511Z,13.23
2019-05-23T03:12:52.874Z,14.57
2019-05-23T03:15:24.851Z,14.97
2019-05-23T03:17:56.791Z,13.70
2019-05-23T03:20:27.012Z,12.87
2019-05-23T03:23:08.591Z,14.07
2019-05-23T03:26:19.407Z,15.13
2019-05-23T03:28:49.899Z,16.97
2019-05-23T03:31:35.900Z,17.80
2019-05-23T03:34:08.023Z,14.63
2019-05-23T03:36:38.718Z,15.60
2019-05-23T03:39:09.557Z,16.10
2019-05-23T03:41:39.466Z,16.77
2019-05-23T03:44:10.168Z,17.30
2019-05-23T03:46:44.622Z,18.30
2019-05-23T03:49:14.871Z,15.67
2019-05-23T03:51:44.891Z,15.97
2019-05-23T03:54:15.158Z,14.63
2019-05-23T03:56:44.468Z,14.73
2019-05-23T03:59:14.330Z,14.27
2019-05-23T04:01:48.379Z,19.10
2019-05-23T04:04:16.150Z,17.53
2019-05-23T04:06:47.797Z,16.20
2019-05-23T04:09:17.729Z,13.53
2019-05-23T04:11:46.950Z,15.53
2019-05-23T04:14:17.382Z,13.33
2019-05-23T04:16:47.240Z,15.17
2019-05-23T04:19:17.688Z,16.37
2019-05-23T04:21:46.987Z,16.07
2019-05-23T04:24:16.932Z,15.00
2019-05-23T04:26:46.605Z,14.97
2019-05-23T04:29:15.838Z,16.67
2019-05-23T04:31:45.344Z,17.47
2019-05-23T04:34:15.110Z,17.53
2019-05-23T04:36:44.392Z,17.47
2019-05-23T04:39:14.318Z,18.00
2019-05-23T04:41:43.961Z,16.13
2019-05-23T04:44:13.454Z,22.43
2019-05-23T04:46:43.204Z,20.60
2019-05-23T04:49:12.789Z,20.43
2019-05-23T04:51:42.517Z,16.87
2019-05-23T04:54:12.378Z,18.57
2019-05-23T04:56:41.745Z,16.20
2019-05-23T04:59:11.460Z,17.03
2019-05-23T05:01:40.829Z,14.70
2019-05-23T05:04:10.551Z,15.40
2019-05-23T05:06:40.126Z,15.53
2019-05-23T05:09:11.440Z,15.17
2019-05-23T05:11:40.787Z,13.27
2019-05-23T05:14:10.291Z,15.40
2019-05-23T05:16:40.198Z,14.50
2019-05-23T05:19:09.430Z,16.73
2019-05-23T05:21:39.244Z,13.00
2019-05-23T05:24:08.434Z,13.27
2019-05-23T05:26:37.822Z,16.43
2019-05-23T05:29:07.093Z,14.30
2019-05-23T05:31:36.442Z,18.17
2019-05-23T05:34:05.882Z,16.77
2019-05-23T05:36:35.137Z,14.83
2019-05-23T05:39:06.944Z,14.17
2019-05-23T05:41:36.929Z,15.07
2019-05-23T05:44:06.857Z,16.50
2019-05-23T05:46:36.372Z,15.80
2019-05-23T05:49:06.822Z,17.43
2019-05-23T05:51:36.137Z,14.93
2019-05-23T05:54:05.891Z,14.77
2019-05-23T05:56:35.567Z,13.90
2019-05-23T05:59:05.016Z,13.80
2019-05-23T06:01:35.058Z,15.27
2019-05-23T06:04:05.360Z,13.40
2019-05-23T06:06:45.644Z,13.50
2019-05-23T06:09:26.216Z,13.80
2019-05-23T06:11:55.494Z,14.03
2019-05-23T06:14:24.930Z,15.70
2019-05-23T06:16:56.013Z,17.43
2019-05-23T06:19:25.517Z,13.73
2019-05-23T06:21:54.850Z,17.07
2019-05-23T06:24:41.683Z,17.37
2019-05-23T06:26:56.152Z,17.43
2019-05-23T06:29:25.832Z,16.93
2019-05-23T06:31:56.274Z,19.70
2019-05-23T06:34:25.812Z,20.03
2019-05-23T06:36:55.537Z,26.70
2019-05-23T06:39:25.412Z,16.70
2019-05-23T06:41:54.714Z,20.33
2019-05-23T06:44:24.097Z,18.80
2019-05-23T06:46:53.344Z,20.03
2019-05-23T06:49:22.725Z,19.50
2019-05-23T06:51:51.962Z,14.43
2019-05-23T06:54:21.227Z,16.23
2019-05-23T06:56:52.848Z,15.77
2019-05-23T06:59:22.433Z,14.83
2019-05-23T07:01:52.032Z,17.40
2019-05-23T07:04:21.866Z,14.07
2019-05-23T07:06:51.907Z,17.17
2019-05-23T07:09:21.613Z,13.67
2019-05-23T07:11:54.525Z,14.87
2019-05-23T07:14:23.973Z,15.60
2019-05-23T07:16:53.223Z,14.47
2019-05-23T07:19:22.519Z,17.90
2019-05-23T07:21:51.856Z,16.43
2019-05-23T07:24:22.319Z,20.77
2019-05-23T07:26:51.796Z,17.50
2019-05-23T07:29:25.548Z,23.03
2019-05-23T07:31:54.880Z,16.80
2019-05-23T07:34:25.321Z,18.53
2019-05-23T07:36:54.871Z,19.83
2019-05-23T07:39:24.150Z,19.77
2019-05-23T07:41:53.639Z,19.70
2019-05-23T07:44:23.361Z,20.33
2019-05-23T07:46:52.736Z,18.90
2019-05-23T07:49:21.983Z,15.40
2019-05-23T07:51:51.192Z,18.27
2019-05-23T07:54:32.978Z,16.17
2019-05-23T07:57:02.695Z,17.17
2019-05-23T07:59:35.270Z,15.70
2019-05-23T08:02:16.559Z,19.90
2019-05-23T08:04:45.935Z,18.10
2019-05-23T08:07:16.666Z,17.40
2019-05-23T08:09:46.059Z,14.50
2019-05-23T08:12:15.390Z,14.07
2019-05-23T08:14:44.870Z,16.27
2019-05-23T08:17:14.286Z,13.60
2019-05-23T08:19:49.647Z,18.37
2019-05-23T08:22:14.987Z,14.97
2019-05-23T08:24:44.251Z,15.10
2019-05-23T08:27:13.945Z,13.23
2019-05-23T08:29:43.300Z,17.27
2019-05-23T08:32:13.109Z,15.87
2019-05-23T08:34:43.034Z,14.07
2019-05-23T08:37:14.161Z,14.70
2019-05-23T08:39:44.399Z,14.73
2019-05-23T08:42:14.469Z,15.37
2019-05-23T08:44:44.675Z,15.43
2019-05-23T08:47:14.152Z,14.33
2019-05-23T08:49:43.464Z,18.43
2019-05-23T08:52:13.156Z,14.13
2019-05-23T08:54:43.809Z,14.57
2019-05-23T08:57:14.769Z,14.67
2019-05-23T08:59:44.021Z,12.67
2019-05-23T09:02:13.540Z,13.13
2019-05-23T09:05:02.285Z,13.23
2019-05-23T09:07:14.814Z,11.50
2019-05-23T09:09:44.703Z,9.83
2019-05-23T09:12:14.135Z,10.57
2019-05-23T09:14:44.361Z,12.37
2019-05-23T09:17:13.846Z,10.33
2019-05-23T09:19:43.320Z,11.57
2019-05-23T09:22:12.745Z,10.83
2019-05-23T09:24:42.057Z,10.00
2019-05-23T09:27:11.941Z,9.67
2019-05-23T09:29:42.075Z,10.17
2019-05-23T09:32:11.677Z,9.07
2019-05-23T09:34:40.888Z,10.23
2019-05-23T09:37:11.808Z,13.23
2019-05-23T09:39:41.955Z,10.13
2019-05-23T09:42:12.299Z,12.27
2019-05-23T09:44:41.939Z,11.00
2019-05-23T09:47:11.468Z,11.80
2019-05-23T09:49:40.732Z,8.80
2019-05-23T09:52:12.126Z,6.67
2019-05-23T09:54:41.740Z,6.80
2019-05-23T09:57:12.045Z,7.53
2019-05-23T09:59:41.325Z,9.17
2019-05-23T10:02:11.701Z,8.43
2019-05-23T10:04:41.012Z,8.10
2019-05-23T10:07:10.732Z,8.77
2019-05-23T10:09:39.915Z,6.43
2019-05-23T10:12:09.201Z,5.43
2019-05-23T10:14:39.265Z,5.80
2019-05-23T10:17:09.010Z,5.53
2019-05-23T10:19:38.509Z,6.17
2019-05-23T10:22:08.458Z,5.37
2019-05-23T10:24:37.825Z,6.10
2019-05-23T10:27:08.875Z,4.83
2019-05-23T10:29:38.293Z,4.20
2019-05-23T10:32:09.292Z,4.97
2019-05-23T10:34:39.208Z,7.47
2019-05-23T10:37:10.375Z,6.53
2019-05-23T10:39:41.115Z,5.37
2019-05-23T10:42:10.592Z,4.17
2019-05-23T10:44:39.875Z,5.43
2019-05-23T10:47:09.138Z,5.00
2019-05-23T10:49:38.516Z,3.93
2019-05-23T10:52:07.761Z,4.03
2019-05-23T10:54:37.041Z,5.40
2019-05-23T10:57:06.411Z,6.47
2019-05-23T10:59:35.719Z,6.17
2019-05-23T11:02:06.369Z,5.83
2019-05-23T11:04:36.101Z,5.10
2019-05-23T11:07:05.526Z,8.20
2019-05-23T11:09:38.333Z,5.60
2019-05-23T11:12:07.718Z,5.90
2019-05-23T11:14:37.502Z,5.57
2019-05-23T11:17:06.957Z,7.43
2019-05-23T11:19:36.313Z,5.83
2019-05-23T11:22:06.702Z,6.40
2019-05-23T11:24:36.037Z,5.93
2019-05-23T11:27:05.488Z,5.87
2019-05-23T11:29:34.783Z,7.00
2019-05-23T11:32:05.752Z,6.50
2019-05-23T11:34:36.242Z,4.57
2019-05-23T11:37:07.561Z,4.97
2019-05-23T11:39:41.978Z,4.83
2019-05-23T11:42:08.378Z,6.03
2019-05-23T11:44:37.654Z,6.37
2019-05-23T11:47:07.235Z,6.30
2019-05-23T11:49:36.542Z,4.47
2019-05-23T11:52:06.248Z,6.80
2019-05-23T11:54:36.412Z,7.20
2019-05-23T11:57:05.983Z,5.20
2019-05-23T11:59:35.444Z,4.60
2019-05-23T12:02:13.611Z,4.60
2019-05-23T12:04:44.153Z,5.10
2019-05-23T12:09:49.314Z,4.67
2019-05-23T12:12:18.785Z,4.33
2019-05-23T12:14:48.074Z,4.00
2019-05-23T12:17:19.655Z,4.00
2019-05-23T12:19:49.392Z,4.80
2019-05-23T12:22:18.780Z,4.77
2019-05-23T12:24:48.116Z,6.67
2019-05-23T12:27:17.580Z,4.20
2019-05-23T12:29:47.134Z,4.70
2019-05-23T12:32:16.688Z,6.10
2019-05-23T12:35:08.123Z,5.37
2019-05-23T12:37:20.396Z,4.93
2019-05-23T12:39:49.364Z,5.83
2019-05-23T12:42:18.823Z,5.20
2019-05-23T12:44:48.167Z,4.50
2019-05-23T12:47:27.433Z,4.47
2019-05-23T12:50:02.468Z,4.73
2019-05-23T12:52:32.783Z,5.93
2019-05-23T12:55:02.049Z,6.97
2019-05-23T12:57:31.516Z,4.73
2019-05-23T13:00:00.831Z,4.87
2019-05-23T13:02:31.008Z,4.40
2019-05-23T13:05:00.677Z,4.73
2019-05-23T13:07:36.238Z,5.03
2019-05-23T13:10:01.931Z,5.97
2019-05-23T13:12:31.726Z,4.33
2019-05-23T13:15:01.007Z,4.13
2019-05-23T13:17:30.726Z,6.40
2019-05-23T13:20:00.002Z,3.90
2019-05-23T13:22:29.483Z,6.45
2019-05-23T13:24:58.752Z,3.85
2019-05-23T13:27:29.229Z,4.62
2019-05-23T13:29:58.553Z,3.85
2019-05-23T13:32:27.998Z,5.78
2019-05-23T13:34:57.302Z,4.85
2019-05-23T13:37:27.003Z,3.75
2019-05-23T13:40:00.175Z,3.98
2019-05-23T13:42:29.621Z,3.60
2019-05-23T13:45:19.822Z,4.03
2019-05-23T13:47:49.335Z,3.85
2019-05-23T13:50:19.040Z,6.83
2019-05-23T13:52:48.431Z,3.90
2019-05-23T13:55:18.347Z,3.40
2019-05-23T13:58:05.101Z,3.80
2019-05-23T14:00:35.647Z,3.85
2019-05-23T14:03:05.086Z,4.25
2019-05-23T14:05:34.688Z,4.25
2019-05-23T14:08:12.159Z,4.83
2019-05-23T14:10:35.203Z,3.50
2019-05-23T14:13:07.149Z,3.33
2019-05-23T14:15:40.819Z,3.65
2019-05-23T14:18:11.734Z,3.47
2019-05-23T14:20:41.308Z,3.62
2019-05-23T14:23:24.898Z,2.95
2019-05-23T14:29:38.803Z,4.05
2019-05-23T14:34:45.549Z,4.25
2019-05-23T14:37:23.825Z,4.62
2019-05-23T14:39:56.859Z,5.55
2019-05-23T14:42:52.736Z,5.03
2019-05-23T14:45:46.456Z,5.03
2019-05-23T14:48:27.620Z,4.75
2019-05-23T14:51:11.895Z,4.50
2019-05-23T14:53:42.761Z,4.20
2019-05-23T14:56:15.163Z,5.62
2019-05-23T14:58:46.682Z,4.30
2019-05-23T15:01:15.984Z,4.50
2019-05-23T15:06:24.363Z,3.45
2019-05-23T15:09:00.122Z,4.10
2019-05-23T15:11:30.211Z,3.62
2019-05-23T15:14:00.976Z,4.55
2019-05-23T15:16:35.333Z,2.92
2019-05-23T15:19:07.398Z,3.77
2019-05-23T15:21:36.912Z,4.22
2019-05-23T15:24:06.860Z,4.20
2019-05-23T15:26:36.257Z,2.80
2019-05-23T15:29:06.291Z,5.20
2019-05-23T15:31:37.961Z,5.60
2019-05-23T15:34:07.323Z,5.70
2019-05-23T15:36:37.468Z,3.47
2019-05-23T15:39:19.157Z,2.92
2019-05-23T15:41:48.682Z,3.15
2019-05-23T15:44:26.916Z,3.45
2019-05-23T15:46:59.595Z,6.05
2019-05-23T15:49:38.154Z,9.05
2019-05-23T15:52:26.263Z,2.90
2019-05-23T15:55:29.193Z,3.25
2019-05-23T15:58:13.948Z,2.50
2019-05-23T16:00:56.016Z,4.78
2019-05-23T16:03:50.628Z,3.70
2019-05-23T16:06:21.631Z,3.17
2019-05-23T16:08:52.831Z,2.70
2019-05-23T16:11:22.259Z,2.95
2019-05-23T16:14:32.213Z,2.87
2019-05-23T16:17:03.164Z,4.90
2019-05-23T16:19:32.813Z,3.22
2019-05-23T16:22:02.724Z,3.77
2019-05-23T16:24:32.211Z,2.62
2019-05-23T16:27:01.885Z,2.67
2019-05-23T16:29:38.725Z,4.03
2019-05-23T16:34:55.549Z,2.95
2019-05-23T16:37:29.697Z,5.97
2019-05-23T16:39:59.551Z,2.67
2019-05-23T16:42:31.249Z,2.70
2019-05-23T16:56:21.342Z,3.13
2019-05-23T16:59:15.862Z,3.13
2019-05-23T17:02:07.037Z,3.00
2019-05-23T17:04:42.203Z,3.47
2019-05-23T17:07:36.172Z,2.90
2019-05-23T17:10:10.912Z,4.10
2019-05-23T17:12:48.955Z,4.07
2019-05-23T17:15:41.169Z,2.97
2019-05-23T17:18:37.994Z,3.83
2019-05-23T17:21:29.640Z,3.40
2019-05-23T17:24:05.286Z,3.53
2019-05-23T17:29:37.648Z,3.87
2019-05-23T17:32:15.094Z,4.23
2019-05-23T17:37:22.744Z,4.23
2019-05-23T17:43:38.594Z,2.33
2019-05-23T17:46:08.253Z,3.13
2019-05-23T17:51:18.157Z,2.53
2019-05-23T17:54:05.918Z,2.30
2019-05-23T17:56:47.634Z,2.17
2019-05-23T17:59:17.096Z,4.30
2019-05-23T18:01:47.410Z,2.20
2019-05-23T18:04:32.090Z,2.23
2019-05-23T18:07:02.864Z,3.87
2019-05-23T18:09:41.904Z,2.13
2019-05-23T18:12:18.174Z,2.30
2019-05-23T18:14:48.466Z,4.40
2019-05-23T18:17:18.011Z,3.00
2019-05-23T18:19:48.098Z,2.80
2019-05-23T18:22:18.453Z,2.37
2019-05-23T18:24:48.723Z,2.13
2019-05-23T18:27:19.732Z,2.27
2019-05-23T18:29:49.405Z,3.53
2019-05-23T18:32:22.789Z,2.77
2019-05-23T18:34:52.959Z,2.17
2019-05-23T18:37:22.544Z,2.57
2019-05-23T18:39:52.184Z,2.40
2019-05-23T18:42:22.106Z,2.50
2019-05-23T18:44:52.711Z,2.53
2019-05-23T18:47:31.643Z,1.77
2019-05-23T18:50:01.460Z,2.77
2019-05-23T18:52:30.783Z,2.77
2019-05-23T18:55:00.427Z,2.27
2019-05-23T18:57:29.995Z,2.50
2019-05-23T18:59:59.811Z,2.20
2019-05-23T19:02:30.105Z,3.10
2019-05-23T19:04:59.660Z,3.03
2019-05-23T19:07:29.134Z,4.20
2019-05-23T19:09:58.662Z,2.97
2019-05-23T19:12:28.282Z,2.37
2019-05-23T19:14:57.515Z,5.57
2019-05-23T19:17:26.893Z,6.30
2019-05-23T19:19:56.706Z,3.17
2019-05-23T19:22:26.897Z,4.60
2019-05-23T19:24:56.510Z,3.20
2019-05-23T19:27:25.738Z,6.10
2019-05-23T19:29:55.227Z,3.83
2019-05-23T19:32:26.256Z,5.10
2019-05-23T19:34:56.492Z,3.77
2019-05-23T19:37:27.109Z,3.17
2019-05-23T19:39:56.748Z,3.00
2019-05-23T19:42:29.280Z,3.80
2019-05-23T19:45:02.232Z,4.80
2019-05-23T19:47:31.645Z,3.30
2019-05-23T19:50:03.203Z,3.37
2019-05-23T19:52:32.766Z,5.50
2019-05-23T19:55:05.237Z,3.20
2019-05-23T19:57:36.173Z,4.00
2019-05-23T20:00:09.068Z,3.93
2019-05-23T20:02:47.525Z,3.40
2019-05-23T20:05:23.456Z,2.70
2019-05-23T20:07:52.802Z,4.60
2019-05-23T20:10:22.614Z,3.07
2019-05-23T20:12:51.933Z,4.00
2019-05-23T20:15:22.148Z,6.10
2019-05-23T20:17:52.362Z,3.93
2019-05-23T20:20:22.988Z,4.00
2019-05-23T20:22:57.258Z,4.17
2019-05-23T20:25:26.871Z,5.37
2019-05-23T20:27:56.236Z,3.77
2019-05-23T20:30:54.956Z,3.80
2019-05-23T20:33:26.335Z,5.67
2019-05-23T20:35:55.855Z,3.53
2019-05-23T20:38:26.520Z,4.60
2019-05-23T20:40:56.704Z,3.93
2019-05-23T20:43:25.993Z,4.27
2019-05-23T20:45:55.311Z,4.20
2019-05-23T20:48:25.924Z,3.67
2019-05-23T20:50:57.760Z,4.80
2019-05-23T20:53:28.167Z,4.00
2019-05-23T20:55:58.539Z,3.70
2019-05-23T20:58:29.057Z,7.13
2019-05-23T21:01:08.357Z,5.20
2019-05-23T21:03:37.970Z,5.27
2019-05-23T21:06:08.717Z,6.77
2019-05-23T21:08:38.026Z,5.10
2019-05-23T21:11:07.295Z,3.83
2019-05-23T21:13:36.900Z,5.70
2019-05-23T21:16:08.760Z,7.73
2019-05-23T21:18:40.501Z,5.60
2019-05-23T21:21:09.986Z,4.03
2019-05-23T21:23:39.337Z,5.00
2019-05-23T21:26:09.598Z,4.93
2019-05-23T21:28:40.097Z,5.57
2019-05-23T21:31:17.980Z,3.70
2019-05-23T21:33:47.321Z,6.17
2019-05-23T21:36:16.909Z,4.53
2019-05-23T21:38:46.456Z,4.53
2019-05-23T21:41:15.815Z,6.50
2019-05-23T21:43:46.676Z,6.33
2019-05-23T21:46:16.106Z,5.10
2019-05-23T21:48:45.495Z,6.80
2019-05-23T21:51:14.773Z,6.00
2019-05-23T21:53:44.367Z,4.67
2019-05-23T21:56:13.652Z,5.90
2019-05-23T21:58:42.941Z,7.93
2019-05-23T22:01:48.250Z,5.20
2019-05-23T22:04:36.682Z,10.90
2019-05-23T22:07:07.134Z,5.30
2019-05-23T22:09:36.437Z,5.30
2019-05-23T22:12:06.976Z,5.57
2019-05-23T22:14:36.692Z,7.07
2019-05-23T22:17:06.051Z,5.97
2019-05-23T22:19:35.372Z,5.50
2019-05-23T22:22:10.446Z,5.93
2019-05-23T22:24:39.737Z,5.57
2019-05-23T22:27:11.369Z,7.30
2019-05-23T22:29:40.993Z,7.20
2019-05-23T22:32:11.900Z,5.47
2019-05-23T22:34:52.660Z,6.60
2019-05-23T22:37:26.581Z,5.53
2019-05-23T22:39:55.817Z,7.73
2019-05-23T22:42:26.742Z,5.40
2019-05-23T22:44:56.151Z,5.50
2019-05-23T22:47:25.727Z,5.90
2019-05-23T22:49:55.297Z,6.73
2019-05-23T22:52:24.550Z,6.30
2019-05-23T22:54:53.796Z,5.83
2019-05-23T22:57:23.081Z,8.00
2019-05-23T22:59:52.358Z,7.93
2019-05-23T23:02:21.729Z,6.57
2019-05-23T23:04:50.994Z,5.73
2019-05-23T23:07:21.199Z,6.27
2019-05-23T23:09:50.529Z,8.70
2019-05-23T23:12:19.823Z,8.90
2019-05-23T23:14:49.397Z,7.67
2019-05-23T23:17:19.582Z,6.37
2019-05-23T23:19:48.838Z,9.73
2019-05-23T23:22:18.431Z,7.77
2019-05-23T23:24:47.980Z,8.70
2019-05-23T23:27:17.279Z,7.37
2019-05-23T23:29:46.565Z,6.60
2019-05-23T23:32:15.844Z,6.40
2019-05-23T23:34:45.118Z,7.30
2019-05-23T23:37:14.451Z,6.43
2019-05-23T23:39:43.938Z,7.23
2019-05-23T23:42:13.471Z,9.30
2019-05-23T23:44:42.000Z,6.30
2019-05-23T23:47:28.564Z,9.53
2019-05-23T23:50:15.449Z,7.90
2019-05-23T23:53:02.087Z,7.87
2019-05-23T23:55:49.284Z,6.43
2019-05-23T23:58:17.648Z,7.17
